.
WxDataArchive / Data Records for 2008-12-16
2008-12-15 December 2008 2008-12-17

Data Records for Tuesday, 16 December 2008

Time	Temp	Chill	HIndex	Humid	Dewpt	 Wind 	HiWind	WindDir	Rain 	Barom 
-----	----	-----	------	-----	-----	------	------	-------	-----	----- 
00:00	15.9	15.9	15.9	73	8.8	1	3	248	0.00	30.601 
00:05	15.9	15.9	15.9	73	8.8	1	4	248	0.00	30.601 
00:10	15.9	15.9	15.9	73	8.8	0	2	248	0.00	30.601 
00:15	15.9	15.9	15.9	73	8.8	0	1	248	0.00	30.596 
00:20	15.9	15.9	15.9	73	8.8	1	5	248	0.00	30.596 
00:25	15.9	15.9	15.9	72	8.5	1	4	248	0.00	30.596 
00:30	15.9	15.9	15.9	72	8.5	0	2	248	0.00	30.603 
00:35	15.9	15.9	15.9	73	8.8	1	5	248	0.00	30.603 
00:40	15.9	15.9	15.9	73	8.8	1	4	225	0.00	30.603 
00:45	15.7	15.7	15.7	72	8.3	2	5	248	0.00	30.604 
00:50	15.6	15.6	15.6	72	8.2	2	5	248	0.00	30.604 
00:55	15.4	15.4	15.4	73	8.3	1	4	248	0.00	30.604 
01:00	15.6	15.6	15.6	73	8.5	1	3	248	0.00	30.603 
01:05	15.6	15.6	15.6	73	8.5	0	2	248	0.00	30.603 
01:10	15.6	15.6	15.6	73	8.5	1	4	248	0.00	30.603 
01:15	15.6	15.6	15.6	73	8.5	0	2	248	0.00	30.606 
01:20	15.4	15.4	15.4	73	8.3	1	2	248	0.00	30.606 
01:25	15.4	15.4	15.4	74	8.6	1	2	248	0.00	30.606 
01:30	15.4	15.4	15.4	73	8.3	1	5	248	0.00	30.599 
01:35	15.4	15.4	15.4	74	8.6	1	3	248	0.00	30.599 
01:40	15.4	15.4	15.4	74	8.6	0	2	248	0.00	30.599 
01:45	15.4	15.4	15.4	75	8.9	0	1	248	0.00	30.605 
01:50	15.4	15.4	15.4	74	8.6	1	3	248	0.00	30.605 
01:55	15.4	15.4	15.4	74	8.6	1	3	248	0.00	30.605 
02:00	15.4	15.4	15.4	75	8.9	0	2	248	0.00	30.608 
02:05	15.4	15.4	15.4	75	8.9	0	2	248	0.00	30.608 
02:10	15.4	15.4	15.4	75	8.9	0	1	248	0.00	30.608 
02:15	15.2	15.2	15.2	75	8.7	1	4	248	0.00	30.607 
02:20	15.2	15.2	15.2	75	8.7	1	3	248	0.00	30.607 
02:25	15.2	15.2	15.2	75	8.7	0	3	248	0.00	30.607 
02:30	15.2	15.2	15.2	75	8.7	1	4	248	0.00	30.614 
02:35	15.2	15.2	15.2	75	8.7	1	4	248	0.00	30.614 
02:40	15.1	15.1	15.1	75	8.6	1	3	248	0.00	30.614 
02:45	15.1	15.1	15.1	75	8.6	0	2	248	0.00	30.610 
02:50	15.1	15.1	15.1	75	8.6	0	2	248	0.00	30.610 
02:55	14.9	14.9	14.9	75	8.4	0	2	248	0.00	30.610 
03:00	14.9	14.9	14.9	75	8.4	0	2	248	0.00	30.610 
03:05	14.8	14.8	14.8	75	8.3	0	1	248	0.00	30.610 
03:10	14.8	14.8	14.8	75	8.3	0	1	248	0.00	30.610 
03:15	14.8	14.8	14.8	76	8.6	0	0	---	0.00	30.607 
03:20	14.8	14.8	14.8	76	8.6	0	1	248	0.00	30.607 
03:25	14.6	14.6	14.6	76	8.4	0	1	248	0.00	30.607 
03:30	14.6	14.6	14.6	76	8.4	0	2	248	0.00	30.606 
03:35	14.6	14.6	14.6	76	8.4	0	0	---	0.00	30.606 
03:40	14.6	14.6	14.6	76	8.4	0	0	---	0.00	30.606 
03:45	14.4	14.4	14.4	77	8.5	0	0	---	0.00	30.605 
03:50	14.4	14.4	14.4	77	8.5	0	0	---	0.00	30.605 
03:55	14.3	14.3	14.3	77	8.4	0	0	---	0.00	30.605 
04:00	14.1	14.1	14.1	77	8.2	0	0	---	0.00	30.596 
04:05	14.1	14.1	14.1	77	8.2	0	0	---	0.00	30.596 
04:10	14.0	14.0	14.0	77	8.1	0	1	248	0.00	30.596 
04:15	14.0	14.0	14.0	77	8.1	0	1	248	0.00	30.601 
04:20	13.8	13.8	13.8	77	7.9	0	0	---	0.00	30.601 
04:25	13.8	13.8	13.8	77	7.9	0	1	248	0.00	30.601 
04:30	13.8	13.8	13.8	77	7.9	0	1	248	0.00	30.593 
04:35	13.8	13.8	13.8	77	7.9	0	1	248	0.00	30.593 
04:40	13.8	13.8	13.8	77	7.9	0	0	---	0.00	30.593 
04:45	13.6	13.6	13.6	78	8.0	0	0	---	0.00	30.590 
04:50	13.6	13.6	13.6	78	8.0	0	0	---	0.00	30.590 
04:55	13.6	13.6	13.6	78	8.0	0	0	---	0.00	30.590 
05:00	13.5	13.5	13.5	78	7.9	0	0	---	0.00	30.579 
05:05	13.5	13.5	13.5	78	7.9	0	0	---	0.00	30.579 
05:10	13.5	13.5	13.5	78	7.9	0	0	---	0.00	30.579 
05:15	13.5	13.5	13.5	79	8.2	0	0	---	0.00	30.577 
05:20	13.5	13.5	13.5	79	8.2	0	0	---	0.00	30.577 
05:25	13.5	13.5	13.5	79	8.2	0	0	---	0.00	30.577 
05:30	13.6	13.6	13.6	79	8.3	0	0	---	0.00	30.573 
05:35	13.6	13.6	13.6	79	8.3	0	0	---	0.00	30.573 
05:40	13.6	13.6	13.6	79	8.3	0	0	---	0.00	30.573 
05:45	13.8	13.8	13.8	79	8.5	0	0	---	0.00	30.564 
05:50	13.8	13.8	13.8	79	8.5	0	1	248	0.00	30.564 
05:55	13.8	13.8	13.8	79	8.5	0	0	---	0.00	30.564 
06:00	13.8	13.8	13.8	79	8.5	0	0	---	0.00	30.563 
06:05	14.0	14.0	14.0	79	8.7	0	0	---	0.00	30.563 
06:10	14.0	14.0	14.0	79	8.7	0	0	---	0.00	30.563 
06:15	14.0	14.0	14.0	79	8.7	0	1	248	0.00	30.566 
06:20	14.0	14.0	14.0	79	8.7	0	0	---	0.00	30.566 
06:25	14.0	14.0	14.0	79	8.7	0	0	---	0.00	30.566 
06:30	14.0	14.0	14.0	79	8.7	0	0	---	0.00	30.563 
06:35	14.0	14.0	14.0	79	8.7	0	0	---	0.00	30.563 
06:40	14.0	14.0	14.0	79	8.7	0	0	---	0.00	30.563 
06:45	14.0	14.0	14.0	79	8.7	0	0	---	0.00	30.568 
06:50	14.0	14.0	14.0	79	8.7	0	0	---	0.00	30.568 
06:55	14.0	14.0	14.0	79	8.7	0	0	---	0.00	30.568 
07:00	14.0	14.0	14.0	79	8.7	0	0	---	0.00	30.581 
07:05	14.1	14.1	14.1	79	8.8	0	0	---	0.00	30.581 
07:10	14.1	14.1	14.1	79	8.8	0	1	248	0.00	30.581 
07:15	14.1	14.1	14.1	79	8.8	0	0	---	0.00	30.582 
07:20	14.3	14.3	14.3	80	9.3	0	0	---	0.00	30.582 
07:25	14.3	14.3	14.3	80	9.3	0	0	---	0.00	30.582 
07:30	14.3	14.3	14.3	79	9.0	0	1	248	0.00	30.580 
07:35	14.3	14.3	14.3	79	9.0	0	0	---	0.00	30.580 
07:40	14.4	14.4	14.4	79	9.1	0	0	---	0.00	30.580 
07:45	14.4	14.4	14.4	79	9.1	0	0	---	0.00	30.581 
07:50	14.4	14.4	14.4	80	9.4	0	0	---	0.00	30.581 
07:55	14.4	14.4	14.4	79	9.1	0	1	248	0.00	30.581 
08:00	14.4	14.4	14.4	79	9.1	0	0	---	0.00	30.578 
08:05	14.4	14.4	14.4	79	9.1	0	1	248	0.00	30.578 
08:10	14.6	14.6	14.6	80	9.6	0	0	---	0.00	30.578 
08:15	14.6	14.6	14.6	80	9.6	0	1	248	0.00	30.574 
08:20	14.6	14.6	14.6	80	9.6	0	0	---	0.00	30.574 
08:25	14.8	14.8	14.8	80	9.8	0	2	248	0.00	30.574 
08:30	14.9	14.9	14.9	80	9.9	0	1	248	0.00	30.563 
08:35	14.9	14.9	14.9	80	9.9	0	1	248	0.00	30.563 
08:40	15.1	15.1	15.1	80	10.1	0	1	248	0.00	30.563 
08:45	15.2	15.2	15.2	80	10.2	0	1	248	0.00	30.558 
08:50	15.2	15.2	15.2	80	10.2	0	2	248	0.00	30.558 
08:55	15.4	15.4	15.4	80	10.4	0	2	135	0.00	30.558 
09:00	15.6	15.6	15.6	80	10.6	0	1	135	0.00	30.561 
09:05	15.7	15.7	15.7	81	10.9	0	1	135	0.00	30.561 
09:10	15.9	15.9	15.9	81	11.1	0	3	135	0.00	30.561 
09:15	16.1	16.1	16.1	80	11.0	1	3	112	0.00	30.548 
09:20	16.2	16.2	16.2	80	11.1	0	2	112	0.00	30.548 
09:25	16.4	16.4	16.4	81	11.6	0	2	112	0.00	30.548 
09:30	16.5	16.5	16.5	81	11.7	0	2	90	0.00	30.544 
09:35	16.7	16.7	16.7	80	11.6	2	5	112	0.00	30.544 
09:40	16.9	16.9	16.9	80	11.8	0	3	90	0.00	30.544 
09:45	17.0	17.0	17.0	79	11.6	2	5	90	0.00	30.539 
09:50	17.0	17.0	17.0	79	11.6	3	5	90	0.00	30.539 
09:55	17.2	17.2	17.2	79	11.8	1	4	112	0.00	30.539 
10:00	17.3	17.3	17.3	78	11.6	3	7	90	0.00	30.527 
10:05	17.5	17.5	17.5	79	12.1	2	5	90	0.00	30.527 
10:10	17.7	17.7	17.7	78	12.0	3	6	112	0.00	30.527 
10:15	17.7	17.7	17.7	78	12.0	3	7	90	0.00	30.525 
10:20	17.8	17.8	17.8	78	12.1	2	6	90	0.00	30.525 
10:25	18.0	11.9	18.0	77	12.0	4	7	90	0.00	30.525 
10:30	18.1	18.1	18.1	77	12.1	3	7	90	0.00	30.510 
10:35	18.3	18.3	18.3	77	12.3	3	11	90	0.00	30.510 
10:40	18.4	18.4	18.4	77	12.4	2	6	112	0.00	30.510 
10:45	18.6	18.6	18.6	77	12.6	2	6	112	0.00	30.521 
10:50	18.8	18.8	18.8	76	12.5	3	5	112	0.00	30.521 
10:55	18.9	18.9	18.9	75	12.3	3	9	112	0.00	30.521 
11:00	18.9	18.9	18.9	73	11.7	3	7	112	0.00	30.517 
11:05	19.1	19.1	19.1	74	12.2	2	5	112	0.00	30.517 
11:10	19.2	19.2	19.2	73	12.0	3	6	90	0.00	30.517 
11:15	19.4	19.4	19.4	73	12.2	2	7	112	0.00	30.522 
11:20	19.2	19.2	19.2	73	12.0	3	6	112	0.00	30.522 
11:25	19.2	19.2	19.2	73	12.0	2	6	112	0.00	30.522 
11:30	19.4	19.4	19.4	74	12.5	2	6	90	0.00	30.511 
11:35	19.2	19.2	19.2	73	12.0	3	5	90	0.00	30.511 
11:40	19.2	19.2	19.2	74	12.3	3	5	90	0.00	30.511 
11:45	19.4	19.4	19.4	74	12.5	2	5	90	0.00	30.508 
11:50	19.4	19.4	19.4	73	12.2	3	7	90	0.00	30.508 
11:55	19.4	19.4	19.4	74	12.5	2	5	90	0.00	30.508 
12:00	19.4	19.4	19.4	73	12.2	3	7	90	0.00	30.496 
12:05	19.4	19.4	19.4	73	12.2	3	6	112	0.00	30.496 
12:10	19.5	19.5	19.5	73	12.3	3	7	112	0.00	30.496 
12:15	19.5	19.5	19.5	74	12.6	2	6	90	0.00	30.479 
12:20	19.7	19.7	19.7	73	12.5	3	7	112	0.00	30.479 
12:25	19.5	19.5	19.5	73	12.3	3	6	90	0.00	30.479 
12:30	19.5	19.5	19.5	73	12.3	3	5	112	0.00	30.465 
12:35	19.7	19.7	19.7	73	12.5	2	6	90	0.00	30.465 
12:40	19.7	19.7	19.7	73	12.5	3	6	112	0.00	30.465 
12:45	19.7	19.7	19.7	73	12.5	3	5	112	0.00	30.456 
12:50	19.7	19.7	19.7	72	12.2	3	7	112	0.00	30.456 
12:55	19.7	19.7	19.7	72	12.2	3	6	90	0.00	30.456 
13:00	19.7	19.7	19.7	72	12.2	3	7	112	0.00	30.444 
13:05	19.7	19.7	19.7	71	11.8	2	6	90	0.00	30.444 
13:10	19.7	19.7	19.7	71	11.8	3	6	112	0.00	30.444 
13:15	19.7	19.7	19.7	71	11.8	3	9	112	0.00	30.428 
13:20	19.9	19.9	19.9	71	12.0	3	7	112	0.00	30.428 
13:25	19.9	19.9	19.9	72	12.4	3	7	90	0.00	30.428 
13:30	20.0	20.0	20.0	72	12.5	2	7	90	0.00	30.416 
13:35	20.2	20.2	20.2	72	12.6	2	6	90	0.00	30.416 
13:40	20.2	14.4	20.2	72	12.6	4	10	90	0.00	30.416 
13:45	20.3	20.3	20.3	72	12.7	3	9	112	0.00	30.403 
13:50	20.5	20.5	20.5	73	13.2	2	7	90	0.00	30.403 
13:55	20.5	20.5	20.5	72	12.9	3	9	112	0.00	30.403 
14:00	20.5	20.5	20.5	72	12.9	3	5	112	0.00	30.392 
14:05	20.3	20.3	20.3	72	12.7	3	7	112	0.00	30.392 
14:10	20.3	14.6	20.3	73	13.1	4	11	90	0.00	30.392 
14:15	20.3	14.6	20.3	72	12.7	4	7	90	0.00	30.384 
14:20	20.3	20.3	20.3	73	13.1	3	6	90	0.00	30.384 
14:25	20.5	20.5	20.5	73	13.2	3	7	90	0.00	30.384 
14:30	20.5	14.8	20.5	73	13.2	4	9	90	0.00	30.371 
14:35	20.5	20.5	20.5	73	13.2	2	5	90	0.00	30.371 
14:40	20.6	20.6	20.6	73	13.3	3	9	90	0.00	30.371 
14:45	20.6	14.9	20.6	73	13.3	4	7	112	0.00	30.366 
14:50	20.6	14.9	20.6	73	13.3	4	10	112	0.00	30.366 
14:55	20.5	20.5	20.5	73	13.2	3	9	90	0.00	30.366 
15:00	20.6	20.6	20.6	74	13.7	2	6	112	0.00	30.352 
15:05	20.8	20.8	20.8	74	13.8	2	6	68	0.00	30.352 
15:10	20.8	20.8	20.8	74	13.8	3	7	112	0.00	30.352 
15:15	20.6	20.6	20.6	74	13.7	3	7	112	0.00	30.336 
15:20	20.6	20.6	20.6	75	14.0	2	6	112	0.00	30.336 
15:25	20.5	20.5	20.5	76	14.2	3	10	112	0.00	30.336 
15:30	20.3	20.3	20.3	78	14.6	3	7	112	0.00	30.336 
15:35	20.2	14.4	20.2	79	14.8	4	10	90	0.00	30.336 
15:40	20.0	20.0	20.0	80	14.8	2	6	90	0.00	30.336 
15:45	19.9	19.9	19.9	81	15.0	3	10	112	0.00	30.334 
15:50	19.7	19.7	19.7	82	15.1	3	7	112	0.00	30.334 
15:55	19.7	19.7	19.7	82	15.1	2	6	90	0.00	30.334 
16:00	19.7	19.7	19.7	83	15.4	1	6	135	0.00	30.329 
16:05	19.5	19.5	19.5	84	15.5	3	10	112	0.00	30.329 
16:10	19.5	19.5	19.5	84	15.5	2	6	112	0.00	30.329 
16:15	19.5	19.5	19.5	84	15.5	2	5	90	0.00	30.326 
16:20	19.4	19.4	19.4	85	15.6	3	7	112	0.00	30.326 
16:25	19.4	19.4	19.4	85	15.6	2	9	90	0.00	30.326 
16:30	19.2	19.2	19.2	86	15.7	3	6	90	0.00	30.321 
16:35	19.2	19.2	19.2	86	15.7	2	5	90	0.00	30.321 
16:40	19.2	19.2	19.2	87	16.0	3	7	90	0.00	30.321 
16:45	19.2	19.2	19.2	87	16.0	2	6	90	0.00	30.308 
16:50	19.2	19.2	19.2	88	16.2	3	5	90	0.00	30.308 
16:55	19.2	19.2	19.2	88	16.2	2	10	112	0.00	30.308 
17:00	19.2	19.2	19.2	88	16.2	1	6	112	0.00	30.292 
17:05	19.2	19.2	19.2	88	16.2	2	4	112	0.00	30.292 
17:10	19.2	19.2	19.2	88	16.2	3	7	112	0.00	30.292 
17:15	19.2	19.2	19.2	88	16.2	3	7	90	0.00	30.283 
17:20	19.2	19.2	19.2	88	16.2	3	8	90	0.00	30.283 
17:25	19.4	19.4	19.4	88	16.4	1	5	112	0.00	30.283 
17:30	19.4	19.4	19.4	89	16.7	2	5	135	0.00	30.277 
17:35	19.4	19.4	19.4	89	16.7	3	10	90	0.00	30.277 
17:40	19.4	19.4	19.4	89	16.7	2	5	90	0.00	30.277 
17:45	19.4	19.4	19.4	89	16.7	3	9	90	0.00	30.260 
17:50	19.4	19.4	19.4	89	16.7	3	11	90	0.00	30.260 
17:55	19.4	19.4	19.4	89	16.7	3	9	112	0.00	30.260 
18:00	19.4	19.4	19.4	89	16.7	3	7	112	0.00	30.252 
18:05	19.5	19.5	19.5	89	16.8	3	7	112	0.00	30.252 
18:10	19.5	19.5	19.5	89	16.8	3	8	90	0.00	30.252 
18:15	19.5	19.5	19.5	89	16.8	2	7	90	0.00	30.258 
18:20	19.5	19.5	19.5	89	16.8	2	6	90	0.00	30.258 
18:25	19.5	19.5	19.5	89	16.8	1	7	22	0.00	30.258 
18:30	19.7	19.7	19.7	89	17.0	1	4	90	0.00	30.241 
18:35	19.7	19.7	19.7	89	17.0	1	4	112	0.00	30.241 
18:40	19.7	19.7	19.7	89	17.0	1	6	68	0.00	30.241 
18:45	19.7	19.7	19.7	89	17.0	1	5	112	0.00	30.241 
18:50	19.7	19.7	19.7	89	17.0	1	3	112	0.00	30.241 
18:55	19.7	19.7	19.7	90	17.3	2	6	90	0.00	30.241 
19:00	19.7	13.9	19.7	89	17.0	4	7	112	0.00	30.210 
19:05	19.7	19.7	19.7	89	17.0	2	7	112	0.00	30.210 
19:10	19.9	19.9	19.9	90	17.5	2	12	90	0.00	30.210 
19:15	19.9	19.9	19.9	90	17.5	2	7	112	0.00	30.210 
19:20	19.9	19.9	19.9	90	17.5	3	9	112	0.00	30.210 
19:25	19.9	14.1	19.9	90	17.5	4	10	90	0.00	30.210 
19:30	19.7	13.9	19.7	90	17.3	4	10	112	0.00	30.196 
19:35	19.7	13.9	19.7	90	17.3	4	12	112	0.00	30.196 
19:40	19.7	19.7	19.7	90	17.3	3	7	90	0.00	30.196 
19:45	19.7	19.7	19.7	90	17.3	3	11	90	0.00	30.182 
19:50	19.7	19.7	19.7	90	17.3	2	9	90	0.00	30.182 
19:55	19.7	19.7	19.7	90	17.3	3	12	90	0.00	30.182 
20:00	19.7	12.6	19.7	90	17.3	5	12	90	0.00	30.161 
20:05	19.7	13.9	19.7	90	17.3	4	9	90	0.00	30.161 
20:10	19.7	13.9	19.7	90	17.3	4	10	90	0.00	30.161 
20:15	19.9	14.1	19.9	90	17.5	4	10	90	0.00	30.151 
20:20	19.9	19.9	19.9	90	17.5	3	10	112	0.00	30.151 
20:25	20.0	14.2	20.0	90	17.5	4	11	90	0.00	30.151 
20:30	20.2	14.4	20.2	90	17.7	4	9	90	0.00	30.143 
20:35	20.2	20.2	20.2	90	17.7	3	7	90	0.00	30.143 
20:40	20.3	14.6	20.3	90	17.8	4	14	112	0.00	30.143 
20:45	20.5	20.5	20.5	90	18.0	2	7	90	0.00	30.129 
20:50	20.6	20.6	20.6	90	18.1	2	6	90	0.00	30.129 
20:55	20.6	20.6	20.6	90	18.1	3	6	90	0.00	30.129 
21:00	20.8	20.8	20.8	90	18.3	3	8	112	0.00	30.127 
21:05	21.0	21.0	21.0	91	18.8	2	6	90	0.00	30.127 
21:10	21.1	21.1	21.1	91	18.9	2	7	90	0.00	30.127 
21:15	21.1	21.1	21.1	91	18.9	2	7	90	0.00	30.121 
21:20	21.3	21.3	21.3	91	19.1	2	4	112	0.00	30.121 
21:25	21.3	21.3	21.3	91	19.1	1	5	112	0.00	30.121 
21:30	21.3	21.3	21.3	91	19.1	3	11	112	0.00	30.105 
21:35	21.3	21.3	21.3	91	19.1	3	9	90	0.00	30.105 
21:40	21.3	21.3	21.3	91	19.1	3	6	90	0.00	30.105 
21:45	21.4	21.4	21.4	91	19.2	3	10	68	0.00	30.092 
21:50	21.4	21.4	21.4	91	19.2	2	7	90	0.00	30.092 
21:55	21.4	21.4	21.4	91	19.2	3	6	90	0.00	30.092 
22:00	21.4	21.4	21.4	91	19.2	3	10	90	0.00	30.070 
22:05	21.6	21.6	21.6	91	19.4	3	6	90	0.00	30.070 
22:10	21.6	16.1	21.6	91	19.4	4	9	90	0.00	30.070 
22:15	21.8	16.3	21.8	91	19.6	4	7	90	0.00	30.044 
22:20	21.8	21.8	21.8	91	19.6	2	5	90	0.00	30.044 
22:25	21.9	21.9	21.9	92	19.9	3	7	90	0.00	30.044 
22:30	22.2	22.2	22.2	92	20.2	3	7	90	0.00	30.050 
22:35	22.4	17.0	22.4	92	20.4	4	7	112	0.00	30.050 
22:40	22.4	22.4	22.4	92	20.4	3	6	112	0.00	30.050 
22:45	22.5	22.5	22.5	92	20.5	3	9	112	0.00	30.043 
22:50	22.5	22.5	22.5	92	20.5	3	5	90	0.00	30.043 
22:55	22.5	22.5	22.5	92	20.5	2	6	90	0.00	30.043 
23:00	22.7	22.7	22.7	92	20.7	3	6	112	0.00	30.044 
23:05	22.7	22.7	22.7	92	20.7	2	5	90	0.00	30.044 
23:10	22.9	22.9	22.9	92	20.9	2	5	112	0.00	30.044 
23:15	22.9	22.9	22.9	92	20.9	1	3	68	0.00	30.044 
23:20	23.0	23.0	23.0	92	21.0	1	4	112	0.00	30.044 
23:25	23.0	23.0	23.0	92	21.0	1	5	90	0.00	30.044 
23:30	23.0	23.0	23.0	92	21.0	1	3	90	0.00	30.041 
23:35	23.0	23.0	23.0	92	21.0	2	5	68	0.00	30.041 
23:40	23.2	23.2	23.2	92	21.2	1	3	90	0.00	30.041 
23:45	23.2	23.2	23.2	92	21.2	1	2	90	0.00	30.040 
23:50	23.2	23.2	23.2	92	21.2	1	3	90	0.00	30.040 
23:55	23.2	23.2	23.2	92	21.2	1	3	90	0.00	30.040 

CoCoRaHS
IN-AL-39
A2 Web Hosting
Creative Commons License
GoDaddy
search engine by freefind advanced

loaded 2018-11-15 18:23:23 • last modified 2010-11-18 10:43:29
Privacy PolicyDisclaimer
• wx.awcolley.com is powered by PmWiki v.2002016 •
• all content (unless otherwise noted) © 2018 A W Colley